sensor_id;sensor_type;location;lat;lon;timestamp;P1;durP1;ratioP1;P2;durP2;ratioP2
7833;SDS011;3962;42.696;23.354;2022-11-13T00:01:07;1.53;;;1.53;;
7833;SDS011;3962;42.696;23.354;2022-11-13T00:03:35;1.80;;;1.70;;
7833;SDS011;3962;42.696;23.354;2022-11-13T00:06:03;1.87;;;1.77;;
7833;SDS011;3962;42.696;23.354;2022-11-13T00:08:30;0.73;;;0.73;;
7833;SDS011;3962;42.696;23.354;2022-11-13T00:11:01;1.13;;;1.07;;
7833;SDS011;3962;42.696;23.354;2022-11-13T00:13:31;0.80;;;0.80;;
7833;SDS011;3962;42.696;23.354;2022-11-13T00:16:00;1.03;;;1.03;;
7833;SDS011;3962;42.696;23.354;2022-11-13T00:18:28;0.90;;;0.90;;
7833;SDS011;3962;42.696;23.354;2022-11-13T00:20:55;1.27;;;1.27;;
7833;SDS011;3962;42.696;23.354;2022-11-13T00:23:23;8.53;;;1.63;;
7833;SDS011;3962;42.696;23.354;2022-11-13T00:25:50;2.40;;;2.20;;
7833;SDS011;3962;42.696;23.354;2022-11-13T00:28:17;2.87;;;2.67;;
7833;SDS011;3962;42.696;23.354;2022-11-13T00:30:46;3.40;;;3.27;;
7833;SDS011;3962;42.696;23.354;2022-11-13T00:33:13;3.33;;;2.23;;
7833;SDS011;3962;42.696;23.354;2022-11-13T00:35:40;4.33;;;4.03;;
7833;SDS011;3962;42.696;23.354;2022-11-13T00:38:07;3.90;;;3.70;;
7833;SDS011;3962;42.696;23.354;2022-11-13T00:40:34;1.70;;;1.10;;
7833;SDS011;3962;42.696;23.354;2022-11-13T00:43:01;2.33;;;2.23;;
7833;SDS011;3962;42.696;23.354;2022-11-13T00:45:28;1.27;;;1.27;;
7833;SDS011;3962;42.696;23.354;2022-11-13T00:47:56;1.00;;;1.00;;
7833;SDS011;3962;42.696;23.354;2022-11-13T00:50:23;1.47;;;1.47;;
7833;SDS011;3962;42.696;23.354;2022-11-13T00:52:50;1.90;;;1.47;;
7833;SDS011;3962;42.696;23.354;2022-11-13T00:55:16;1.03;;;1.03;;
7833;SDS011;3962;42.696;23.354;2022-11-13T00:57:43;1.20;;;1.10;;
7833;SDS011;3962;42.696;23.354;2022-11-13T01:00:10;1.80;;;1.70;;
7833;SDS011;3962;42.696;23.354;2022-11-13T01:02:38;1.07;;;1.07;;
7833;SDS011;3962;42.696;23.354;2022-11-13T01:05:06;1.30;;;1.30;;
7833;SDS011;3962;42.696;23.354;2022-11-13T01:07:34;2.47;;;2.27;;
7833;SDS011;3962;42.696;23.354;2022-11-13T01:10:02;6.07;;;3.47;;
7833;SDS011;3962;42.696;23.354;2022-11-13T01:12:29;1.47;;;1.37;;
7833;SDS011;3962;42.696;23.354;2022-11-13T01:14:56;4.67;;;2.23;;
7833;SDS011;3962;42.696;23.354;2022-11-13T01:17:23;4.53;;;3.17;;
7833;SDS011;3962;42.696;23.354;2022-11-13T01:19:49;1.10;;;1.10;;
7833;SDS011;3962;42.696;23.354;2022-11-13T01:22:18;1.27;;;1.17;;
7833;SDS011;3962;42.696;23.354;2022-11-13T01:24:44;1.37;;;1.27;;
7833;SDS011;3962;42.696;23.354;2022-11-13T01:27:11;1.23;;;1.23;;
7833;SDS011;3962;42.696;23.354;2022-11-13T01:29:40;1.13;;;1.10;;
7833;SDS011;3962;42.696;23.354;2022-11-13T01:32:07;0.70;;;0.70;;
7833;SDS011;3962;42.696;23.354;2022-11-13T01:34:34;1.53;;;1.53;;
7833;SDS011;3962;42.696;23.354;2022-11-13T01:37:01;0.93;;;0.93;;
7833;SDS011;3962;42.696;23.354;2022-11-13T01:39:29;5.30;;;1.77;;
7833;SDS011;3962;42.696;23.354;2022-11-13T01:41:56;1.30;;;1.30;;
7833;SDS011;3962;42.696;23.354;2022-11-13T01:44:23;1.33;;;1.33;;
7833;SDS011;3962;42.696;23.354;2022-11-13T01:46:51;2.10;;;1.37;;
7833;SDS011;3962;42.696;23.354;2022-11-13T01:49:23;1.63;;;1.53;;
7833;SDS011;3962;42.696;23.354;2022-11-13T01:51:55;1.00;;;1.00;;
7833;SDS011;3962;42.696;23.354;2022-11-13T01:54:25;2.10;;;1.00;;
7833;SDS011;3962;42.696;23.354;2022-11-13T01:56:56;1.17;;;1.17;;
7833;SDS011;3962;42.696;23.354;2022-11-13T01:59:25;1.27;;;1.27;;
7833;SDS011;3962;42.696;23.354;2022-11-13T02:01:54;1.70;;;1.60;;
7833;SDS011;3962;42.696;23.354;2022-11-13T02:04:22;0.70;;;0.70;;
7833;SDS011;3962;42.696;23.354;2022-11-13T02:06:50;1.80;;;1.73;;
7833;SDS011;3962;42.696;23.354;2022-11-13T02:09:21;1.47;;;1.30;;
7833;SDS011;3962;42.696;23.354;2022-11-13T02:11:51;1.97;;;1.87;;
7833;SDS011;3962;42.696;23.354;2022-11-13T02:14:21;0.80;;;0.80;;
7833;SDS011;3962;42.696;23.354;2022-11-13T02:16:50;2.40;;;1.40;;
7833;SDS011;3962;42.696;23.354;2022-11-13T02:19:23;2.73;;;2.50;;
7833;SDS011;3962;42.696;23.354;2022-11-13T02:21:54;1.47;;;1.37;;
7833;SDS011;3962;42.696;23.354;2022-11-13T02:24:29;3.67;;;3.00;;
7833;SDS011;3962;42.696;23.354;2022-11-13T02:26:59;2.80;;;1.90;;
7833;SDS011;3962;42.696;23.354;2022-11-13T02:29:29;1.80;;;1.67;;
7833;SDS011;3962;42.696;23.354;2022-11-13T02:31:56;2.57;;;2.37;;
7833;SDS011;3962;42.696;23.354;2022-11-13T02:34:23;1.97;;;1.90;;
7833;SDS011;3962;42.696;23.354;2022-11-13T02:36:50;1.00;;;1.00;;
7833;SDS011;3962;42.696;23.354;2022-11-13T02:39:17;2.63;;;2.43;;
7833;SDS011;3962;42.696;23.354;2022-11-13T02:41:45;1.93;;;1.83;;
7833;SDS011;3962;42.696;23.354;2022-11-13T02:44:12;2.10;;;2.00;;
7833;SDS011;3962;42.696;23.354;2022-11-13T02:46:39;1.57;;;1.50;;
7833;SDS011;3962;42.696;23.354;2022-11-13T02:49:06;1.27;;;1.27;;
7833;SDS011;3962;42.696;23.354;2022-11-13T02:51:33;1.13;;;1.13;;
7833;SDS011;3962;42.696;23.354;2022-11-13T02:53:59;1.50;;;1.40;;
7833;SDS011;3962;42.696;23.354;2022-11-13T02:56:26;1.57;;;1.57;;
7833;SDS011;3962;42.696;23.354;2022-11-13T02:58:54;1.30;;;1.23;;
7833;SDS011;3962;42.696;23.354;2022-11-13T03:01:21;1.93;;;1.83;;
7833;SDS011;3962;42.696;23.354;2022-11-13T03:03:48;8.47;;;3.10;;
7833;SDS011;3962;42.696;23.354;2022-11-13T03:06:15;1.40;;;1.40;;
7833;SDS011;3962;42.696;23.354;2022-11-13T03:08:42;2.93;;;1.83;;
7833;SDS011;3962;42.696;23.354;2022-11-13T03:11:09;1.30;;;1.30;;
7833;SDS011;3962;42.696;23.354;2022-11-13T03:13:37;0.60;;;0.60;;
7833;SDS011;3962;42.696;23.354;2022-11-13T03:16:06;1.37;;;1.37;;
7833;SDS011;3962;42.696;23.354;2022-11-13T03:18:34;1.00;;;1.00;;
7833;SDS011;3962;42.696;23.354;2022-11-13T03:21:04;1.27;;;1.27;;
7833;SDS011;3962;42.696;23.354;2022-11-13T03:23:32;1.53;;;1.30;;
7833;SDS011;3962;42.696;23.354;2022-11-13T03:26:01;0.70;;;0.70;;
7833;SDS011;3962;42.696;23.354;2022-11-13T03:28:29;1.43;;;1.43;;
7833;SDS011;3962;42.696;23.354;2022-11-13T03:30:56;3.00;;;2.73;;
7833;SDS011;3962;42.696;23.354;2022-11-13T03:33:24;1.67;;;1.63;;
7833;SDS011;3962;42.696;23.354;2022-11-13T03:35:51;0.80;;;0.80;;
7833;SDS011;3962;42.696;23.354;2022-11-13T03:38:18;5.27;;;2.50;;
7833;SDS011;3962;42.696;23.354;2022-11-13T03:40:44;2.60;;;1.40;;
7833;SDS011;3962;42.696;23.354;2022-11-13T03:43:11;1.80;;;1.63;;
7833;SDS011;3962;42.696;23.354;2022-11-13T03:45:38;4.13;;;2.53;;
7833;SDS011;3962;42.696;23.354;2022-11-13T03:48:05;2.10;;;1.97;;
7833;SDS011;3962;42.696;23.354;2022-11-13T03:50:33;1.00;;;1.00;;
7833;SDS011;3962;42.696;23.354;2022-11-13T03:53:00;2.87;;;2.00;;
7833;SDS011;3962;42.696;23.354;2022-11-13T03:55:27;2.47;;;2.27;;
7833;SDS011;3962;42.696;23.354;2022-11-13T03:57:54;1.60;;;1.60;;
7833;SDS011;3962;42.696;23.354;2022-11-13T04:00:21;1.60;;;1.50;;
7833;SDS011;3962;42.696;23.354;2022-11-13T04:02:47;1.67;;;1.57;;
7833;SDS011;3962;42.696;23.354;2022-11-13T04:05:14;1.30;;;1.30;;
7833;SDS011;3962;42.696;23.354;2022-11-13T04:07:42;3.33;;;1.73;;
7833;SDS011;3962;42.696;23.354;2022-11-13T04:10:09;2.20;;;2.10;;
7833;SDS011;3962;42.696;23.354;2022-11-13T04:12:36;1.87;;;1.77;;
7833;SDS011;3962;42.696;23.354;2022-11-13T04:15:03;1.70;;;1.60;;
7833;SDS011;3962;42.696;23.354;2022-11-13T04:17:30;1.03;;;1.03;;
7833;SDS011;3962;42.696;23.354;2022-11-13T04:19:57;2.67;;;2.43;;
7833;SDS011;3962;42.696;23.354;2022-11-13T04:22:24;2.63;;;1.80;;
7833;SDS011;3962;42.696;23.354;2022-11-13T04:24:52;1.20;;;1.20;;
7833;SDS011;3962;42.696;23.354;2022-11-13T04:27:19;1.47;;;1.37;;
7833;SDS011;3962;42.696;23.354;2022-11-13T04:29:45;1.77;;;1.53;;
7833;SDS011;3962;42.696;23.354;2022-11-13T04:32:12;1.13;;;1.13;;
7833;SDS011;3962;42.696;23.354;2022-11-13T04:34:39;1.73;;;1.60;;
7833;SDS011;3962;42.696;23.354;2022-11-13T04:37:06;3.80;;;3.17;;
7833;SDS011;3962;42.696;23.354;2022-11-13T04:39:33;2.50;;;2.30;;
7833;SDS011;3962;42.696;23.354;2022-11-13T04:42:01;2.60;;;2.37;;
7833;SDS011;3962;42.696;23.354;2022-11-13T04:44:45;1.60;;;1.50;;
7833;SDS011;3962;42.696;23.354;2022-11-13T04:47:12;1.57;;;1.50;;
7833;SDS011;3962;42.696;23.354;2022-11-13T04:49:39;15.17;;;9.13;;
7833;SDS011;3962;42.696;23.354;2022-11-13T04:52:06;0.90;;;0.90;;
7833;SDS011;3962;42.696;23.354;2022-11-13T04:54:32;15.60;;;10.47;;
7833;SDS011;3962;42.696;23.354;2022-11-13T04:56:59;14.63;;;10.03;;
7833;SDS011;3962;42.696;23.354;2022-11-13T04:59:28;17.17;;;11.33;;
7833;SDS011;3962;42.696;23.354;2022-11-13T05:01:54;19.87;;;11.77;;
7833;SDS011;3962;42.696;23.354;2022-11-13T05:04:22;19.90;;;11.90;;
7833;SDS011;3962;42.696;23.354;2022-11-13T05:06:49;20.73;;;13.23;;
7833;SDS011;3962;42.696;23.354;2022-11-13T05:09:16;22.17;;;13.07;;
7833;SDS011;3962;42.696;23.354;2022-11-13T05:11:42;21.10;;;13.63;;
7833;SDS011;3962;42.696;23.354;2022-11-13T05:14:09;23.17;;;14.50;;
7833;SDS011;3962;42.696;23.354;2022-11-13T05:16:38;25.90;;;16.60;;
7833;SDS011;3962;42.696;23.354;2022-11-13T05:19:05;30.73;;;16.87;;
7833;SDS011;3962;42.696;23.354;2022-11-13T05:21:32;28.60;;;16.70;;
7833;SDS011;3962;42.696;23.354;2022-11-13T05:23:59;24.67;;;16.30;;
7833;SDS011;3962;42.696;23.354;2022-11-13T05:26:26;28.83;;;17.50;;
7833;SDS011;3962;42.696;23.354;2022-11-13T05:28:55;28.57;;;17.27;;
7833;SDS011;3962;42.696;23.354;2022-11-13T05:31:23;30.57;;;17.23;;
7833;SDS011;3962;42.696;23.354;2022-11-13T05:33:52;27.97;;;17.37;;
7833;SDS011;3962;42.696;23.354;2022-11-13T05:36:20;31.20;;;18.40;;
7833;SDS011;3962;42.696;23.354;2022-11-13T05:38:47;30.67;;;19.10;;
7833;SDS011;3962;42.696;23.354;2022-11-13T05:41:16;28.63;;;16.77;;
7833;SDS011;3962;42.696;23.354;2022-11-13T05:43:44;31.77;;;19.23;;
7833;SDS011;3962;42.696;23.354;2022-11-13T05:46:12;28.17;;;17.10;;
7833;SDS011;3962;42.696;23.354;2022-11-13T05:48:40;31.83;;;19.03;;
7833;SDS011;3962;42.696;23.354;2022-11-13T05:51:11;25.17;;;15.33;;
7833;SDS011;3962;42.696;23.354;2022-11-13T05:53:39;28.23;;;16.87;;
7833;SDS011;3962;42.696;23.354;2022-11-13T05:56:06;31.27;;;19.37;;
7833;SDS011;3962;42.696;23.354;2022-11-13T05:58:35;28.90;;;17.67;;
7833;SDS011;3962;42.696;23.354;2022-11-13T06:01:04;29.27;;;16.47;;
7833;SDS011;3962;42.696;23.354;2022-11-13T06:03:32;32.90;;;18.10;;
7833;SDS011;3962;42.696;23.354;2022-11-13T06:05:59;31.33;;;16.87;;
7833;SDS011;3962;42.696;23.354;2022-11-13T06:08:27;25.30;;;15.73;;
7833;SDS011;3962;42.696;23.354;2022-11-13T06:10:57;33.80;;;18.43;;
7833;SDS011;3962;42.696;23.354;2022-11-13T06:13:25;28.47;;;17.30;;
7833;SDS011;3962;42.696;23.354;2022-11-13T06:15:52;29.03;;;17.93;;
7833;SDS011;3962;42.696;23.354;2022-11-13T06:18:22;29.97;;;18.50;;
7833;SDS011;3962;42.696;23.354;2022-11-13T06:20:49;30.97;;;15.73;;
7833;SDS011;3962;42.696;23.354;2022-11-13T06:23:16;26.17;;;16.40;;
7833;SDS011;3962;42.696;23.354;2022-11-13T06:25:44;32.40;;;17.80;;
7833;SDS011;3962;42.696;23.354;2022-11-13T06:28:11;30.00;;;18.33;;
7833;SDS011;3962;42.696;23.354;2022-11-13T06:30:38;31.80;;;19.03;;
7833;SDS011;3962;42.696;23.354;2022-11-13T06:33:05;35.80;;;20.83;;
7833;SDS011;3962;42.696;23.354;2022-11-13T06:35:31;30.03;;;16.77;;
7833;SDS011;3962;42.696;23.354;2022-11-13T06:37:58;31.47;;;18.50;;
7833;SDS011;3962;42.696;23.354;2022-11-13T06:40:25;33.30;;;18.47;;
7833;SDS011;3962;42.696;23.354;2022-11-13T06:42:53;27.03;;;15.40;;
7833;SDS011;3962;42.696;23.354;2022-11-13T06:45:20;30.37;;;18.33;;
7833;SDS011;3962;42.696;23.354;2022-11-13T06:47:47;30.47;;;18.13;;
7833;SDS011;3962;42.696;23.354;2022-11-13T06:50:13;34.90;;;18.43;;
7833;SDS011;3962;42.696;23.354;2022-11-13T06:52:40;30.63;;;18.07;;
7833;SDS011;3962;42.696;23.354;2022-11-13T06:55:07;32.97;;;20.60;;
7833;SDS011;3962;42.696;23.354;2022-11-13T06:57:34;32.53;;;18.43;;
7833;SDS011;3962;42.696;23.354;2022-11-13T07:00:02;33.17;;;18.07;;
7833;SDS011;3962;42.696;23.354;2022-11-13T07:02:30;34.07;;;19.77;;
7833;SDS011;3962;42.696;23.354;2022-11-13T07:04:57;33.90;;;19.10;;
7833;SDS011;3962;42.696;23.354;2022-11-13T07:07:24;36.97;;;19.10;;
7833;SDS011;3962;42.696;23.354;2022-11-13T07:09:51;36.77;;;18.90;;
7833;SDS011;3962;42.696;23.354;2022-11-13T07:12:18;32.23;;;18.87;;
7833;SDS011;3962;42.696;23.354;2022-11-13T07:14:45;26.00;;;16.27;;
7833;SDS011;3962;42.696;23.354;2022-11-13T07:17:13;28.93;;;17.50;;
7833;SDS011;3962;42.696;23.354;2022-11-13T07:19:39;32.00;;;17.50;;
7833;SDS011;3962;42.696;23.354;2022-11-13T07:22:06;31.03;;;17.80;;
7833;SDS011;3962;42.696;23.354;2022-11-13T07:24:33;29.70;;;17.30;;
7833;SDS011;3962;42.696;23.354;2022-11-13T07:27:00;26.50;;;14.97;;
7833;SDS011;3962;42.696;23.354;2022-11-13T07:29:26;29.50;;;16.70;;
7833;SDS011;3962;42.696;23.354;2022-11-13T07:31:53;27.70;;;15.53;;
7833;SDS011;3962;42.696;23.354;2022-11-13T07:34:21;25.87;;;15.60;;
7833;SDS011;3962;42.696;23.354;2022-11-13T07:36:48;31.13;;;18.00;;
7833;SDS011;3962;42.696;23.354;2022-11-13T07:39:15;30.90;;;17.00;;
7833;SDS011;3962;42.696;23.354;2022-11-13T07:41:42;32.43;;;17.40;;
7833;SDS011;3962;42.696;23.354;2022-11-13T07:44:08;29.97;;;17.97;;
7833;SDS011;3962;42.696;23.354;2022-11-13T07:46:35;27.87;;;17.43;;
7833;SDS011;3962;42.696;23.354;2022-11-13T07:49:02;25.23;;;15.70;;
7833;SDS011;3962;42.696;23.354;2022-11-13T07:51:30;28.33;;;17.73;;
7833;SDS011;3962;42.696;23.354;2022-11-13T07:53:57;28.60;;;15.73;;
7833;SDS011;3962;42.696;23.354;2022-11-13T07:56:24;25.97;;;17.77;;
7833;SDS011;3962;42.696;23.354;2022-11-13T07:58:51;29.73;;;17.23;;
7833;SDS011;3962;42.696;23.354;2022-11-13T08:01:18;29.17;;;17.43;;
7833;SDS011;3962;42.696;23.354;2022-11-13T08:03:45;30.83;;;18.27;;
7833;SDS011;3962;42.696;23.354;2022-11-13T08:06:11;31.67;;;19.13;;
7833;SDS011;3962;42.696;23.354;2022-11-13T08:08:40;35.87;;;20.67;;
7833;SDS011;3962;42.696;23.354;2022-11-13T08:11:07;28.67;;;16.80;;
7833;SDS011;3962;42.696;23.354;2022-11-13T08:13:34;23.87;;;15.43;;
7833;SDS011;3962;42.696;23.354;2022-11-13T08:16:02;29.00;;;18.43;;
7833;SDS011;3962;42.696;23.354;2022-11-13T08:18:30;32.50;;;18.80;;
7833;SDS011;3962;42.696;23.354;2022-11-13T08:20:59;30.33;;;18.03;;
7833;SDS011;3962;42.696;23.354;2022-11-13T08:23:27;30.87;;;18.80;;
7833;SDS011;3962;42.696;23.354;2022-11-13T08:25:56;29.27;;;18.57;;
7833;SDS011;3962;42.696;23.354;2022-11-13T08:28:23;30.60;;;20.07;;
7833;SDS011;3962;42.696;23.354;2022-11-13T08:30:50;32.57;;;19.93;;
7833;SDS011;3962;42.696;23.354;2022-11-13T08:33:17;30.87;;;18.43;;
7833;SDS011;3962;42.696;23.354;2022-11-13T08:35:50;30.90;;;18.37;;
7833;SDS011;3962;42.696;23.354;2022-11-13T08:38:18;28.80;;;18.10;;
7833;SDS011;3962;42.696;23.354;2022-11-13T08:40:45;28.90;;;18.27;;
7833;SDS011;3962;42.696;23.354;2022-11-13T08:43:13;26.93;;;17.30;;
7833;SDS011;3962;42.696;23.354;2022-11-13T08:45:41;30.57;;;19.03;;
7833;SDS011;3962;42.696;23.354;2022-11-13T08:48:07;28.20;;;19.33;;
7833;SDS011;3962;42.696;23.354;2022-11-13T08:50:34;26.20;;;18.27;;
7833;SDS011;3962;42.696;23.354;2022-11-13T08:53:02;29.57;;;17.60;;
7833;SDS011;3962;42.696;23.354;2022-11-13T08:55:29;26.57;;;16.93;;
7833;SDS011;3962;42.696;23.354;2022-11-13T08:57:57;28.87;;;18.63;;
7833;SDS011;3962;42.696;23.354;2022-11-13T09:00:27;27.33;;;18.50;;
7833;SDS011;3962;42.696;23.354;2022-11-13T09:02:54;31.93;;;18.43;;
7833;SDS011;3962;42.696;23.354;2022-11-13T09:05:21;31.97;;;20.20;;
7833;SDS011;3962;42.696;23.354;2022-11-13T09:07:49;30.97;;;20.27;;
7833;SDS011;3962;42.696;23.354;2022-11-13T09:10:17;29.17;;;18.30;;
7833;SDS011;3962;42.696;23.354;2022-11-13T09:12:44;33.93;;;20.53;;
7833;SDS011;3962;42.696;23.354;2022-11-13T09:15:11;28.20;;;17.17;;
7833;SDS011;3962;42.696;23.354;2022-11-13T09:17:39;32.23;;;20.93;;
7833;SDS011;3962;42.696;23.354;2022-11-13T09:20:06;36.90;;;22.67;;
7833;SDS011;3962;42.696;23.354;2022-11-13T09:22:34;38.53;;;23.80;;
7833;SDS011;3962;42.696;23.354;2022-11-13T09:25:00;33.90;;;20.77;;
7833;SDS011;3962;42.696;23.354;2022-11-13T09:27:27;41.00;;;26.53;;
7833;SDS011;3962;42.696;23.354;2022-11-13T09:29:54;32.43;;;20.27;;
7833;SDS011;3962;42.696;23.354;2022-11-13T09:32:21;29.03;;;19.27;;
7833;SDS011;3962;42.696;23.354;2022-11-13T09:34:49;26.50;;;17.77;;
7833;SDS011;3962;42.696;23.354;2022-11-13T09:37:16;27.50;;;17.63;;
7833;SDS011;3962;42.696;23.354;2022-11-13T09:39:43;26.23;;;17.23;;
7833;SDS011;3962;42.696;23.354;2022-11-13T09:42:11;25.90;;;17.33;;
7833;SDS011;3962;42.696;23.354;2022-11-13T09:44:42;25.73;;;17.87;;
7833;SDS011;3962;42.696;23.354;2022-11-13T09:47:13;21.93;;;14.67;;
7833;SDS011;3962;42.696;23.354;2022-11-13T09:49:44;26.70;;;17.30;;
7833;SDS011;3962;42.696;23.354;2022-11-13T09:52:15;32.20;;;20.10;;
7833;SDS011;3962;42.696;23.354;2022-11-13T09:54:49;27.30;;;17.60;;
7833;SDS011;3962;42.696;23.354;2022-11-13T09:57:20;23.87;;;16.77;;
7833;SDS011;3962;42.696;23.354;2022-11-13T09:59:58;31.03;;;20.07;;
7833;SDS011;3962;42.696;23.354;2022-11-13T10:02:30;29.93;;;17.53;;
7833;SDS011;3962;42.696;23.354;2022-11-13T10:05:09;26.20;;;17.53;;
7833;SDS011;3962;42.696;23.354;2022-11-13T10:07:43;27.43;;;17.97;;
7833;SDS011;3962;42.696;23.354;2022-11-13T10:10:26;28.27;;;17.87;;
7833;SDS011;3962;42.696;23.354;2022-11-13T10:13:09;31.10;;;19.77;;
7833;SDS011;3962;42.696;23.354;2022-11-13T10:15:40;30.53;;;19.63;;
7833;SDS011;3962;42.696;23.354;2022-11-13T10:18:10;29.87;;;18.10;;
7833;SDS011;3962;42.696;23.354;2022-11-13T10:20:43;27.20;;;17.30;;
7833;SDS011;3962;42.696;23.354;2022-11-13T10:23:18;28.60;;;19.07;;
7833;SDS011;3962;42.696;23.354;2022-11-13T10:25:46;26.53;;;17.73;;
7833;SDS011;3962;42.696;23.354;2022-11-13T10:28:16;25.10;;;17.73;;
7833;SDS011;3962;42.696;23.354;2022-11-13T10:30:47;33.07;;;20.30;;
7833;SDS011;3962;42.696;23.354;2022-11-13T10:33:15;27.50;;;18.87;;
7833;SDS011;3962;42.696;23.354;2022-11-13T10:35:49;34.77;;;21.13;;
7833;SDS011;3962;42.696;23.354;2022-11-13T10:38:27;31.80;;;19.83;;
7833;SDS011;3962;42.696;23.354;2022-11-13T10:41:03;32.67;;;20.70;;
7833;SDS011;3962;42.696;23.354;2022-11-13T10:43:33;28.07;;;17.03;;
7833;SDS011;3962;42.696;23.354;2022-11-13T10:46:01;31.10;;;18.97;;
7833;SDS011;3962;42.696;23.354;2022-11-13T10:48:30;29.30;;;18.77;;
7833;SDS011;3962;42.696;23.354;2022-11-13T10:50:58;26.50;;;16.87;;
7833;SDS011;3962;42.696;23.354;2022-11-13T10:53:36;26.47;;;17.27;;
7833;SDS011;3962;42.696;23.354;2022-11-13T10:56:12;27.07;;;16.90;;
7833;SDS011;3962;42.696;23.354;2022-11-13T10:58:58;27.80;;;16.90;;
7833;SDS011;3962;42.696;23.354;2022-11-13T11:01:26;34.03;;;20.17;;
7833;SDS011;3962;42.696;23.354;2022-11-13T11:03:54;34.43;;;19.83;;
7833;SDS011;3962;42.696;23.354;2022-11-13T11:06:29;30.20;;;17.67;;
7833;SDS011;3962;42.696;23.354;2022-11-13T11:09:21;27.10;;;17.70;;
7833;SDS011;3962;42.696;23.354;2022-11-13T11:11:57;28.47;;;18.33;;
7833;SDS011;3962;42.696;23.354;2022-11-13T11:17:42;36.07;;;20.83;;
7833;SDS011;3962;42.696;23.354;2022-11-13T11:20:18;30.83;;;19.30;;
7833;SDS011;3962;42.696;23.354;2022-11-13T11:22:49;29.90;;;18.47;;
7833;SDS011;3962;42.696;23.354;2022-11-13T11:25:23;27.33;;;17.27;;
7833;SDS011;3962;42.696;23.354;2022-11-13T11:27:59;29.67;;;17.23;;
7833;SDS011;3962;42.696;23.354;2022-11-13T11:30:32;31.20;;;18.60;;
7833;SDS011;3962;42.696;23.354;2022-11-13T11:33:07;31.00;;;18.90;;
7833;SDS011;3962;42.696;23.354;2022-11-13T11:35:41;34.03;;;20.97;;
7833;SDS011;3962;42.696;23.354;2022-11-13T11:38:15;27.17;;;18.77;;
7833;SDS011;3962;42.696;23.354;2022-11-13T11:40:50;30.53;;;19.53;;
7833;SDS011;3962;42.696;23.354;2022-11-13T11:43:22;30.83;;;17.93;;
7833;SDS011;3962;42.696;23.354;2022-11-13T11:45:59;29.37;;;19.10;;
7833;SDS011;3962;42.696;23.354;2022-11-13T11:48:26;31.60;;;20.03;;
7833;SDS011;3962;42.696;23.354;2022-11-13T11:50:56;28.37;;;18.23;;
7833;SDS011;3962;42.696;23.354;2022-11-13T11:53:32;32.80;;;20.77;;
7833;SDS011;3962;42.696;23.354;2022-11-13T11:56:17;31.17;;;19.00;;
7833;SDS011;3962;42.696;23.354;2022-11-13T11:59:01;30.63;;;19.17;;
7833;SDS011;3962;42.696;23.354;2022-11-13T12:01:43;34.67;;;19.73;;
7833;SDS011;3962;42.696;23.354;2022-11-13T12:04:26;30.73;;;18.57;;
7833;SDS011;3962;42.696;23.354;2022-11-13T12:07:06;33.87;;;20.10;;
7833;SDS011;3962;42.696;23.354;2022-11-13T12:09:46;29.13;;;18.97;;
7833;SDS011;3962;42.696;23.354;2022-11-13T12:12:22;29.93;;;17.70;;
7833;SDS011;3962;42.696;23.354;2022-11-13T12:14:59;27.70;;;18.43;;
7833;SDS011;3962;42.696;23.354;2022-11-13T12:17:38;30.90;;;19.57;;
7833;SDS011;3962;42.696;23.354;2022-11-13T12:20:18;32.67;;;20.50;;
7833;SDS011;3962;42.696;23.354;2022-11-13T12:22:56;32.10;;;19.00;;
7833;SDS011;3962;42.696;23.354;2022-11-13T12:25:31;29.87;;;18.83;;
7833;SDS011;3962;42.696;23.354;2022-11-13T12:28:09;31.90;;;20.17;;
7833;SDS011;3962;42.696;23.354;2022-11-13T12:30:45;34.40;;;20.40;;
7833;SDS011;3962;42.696;23.354;2022-11-13T12:33:24;30.93;;;20.03;;
7833;SDS011;3962;42.696;23.354;2022-11-13T12:35:59;32.00;;;18.40;;
7833;SDS011;3962;42.696;23.354;2022-11-13T12:38:31;27.17;;;16.20;;
7833;SDS011;3962;42.696;23.354;2022-11-13T12:41:04;27.67;;;17.67;;
7833;SDS011;3962;42.696;23.354;2022-11-13T12:43:46;29.10;;;17.57;;
7833;SDS011;3962;42.696;23.354;2022-11-13T12:46:39;25.77;;;16.63;;
7833;SDS011;3962;42.696;23.354;2022-11-13T12:49:14;25.50;;;16.80;;
7833;SDS011;3962;42.696;23.354;2022-11-13T12:51:55;27.93;;;17.53;;
7833;SDS011;3962;42.696;23.354;2022-11-13T12:54:25;31.23;;;18.67;;
7833;SDS011;3962;42.696;23.354;2022-11-13T12:57:03;28.37;;;17.33;;
7833;SDS011;3962;42.696;23.354;2022-11-13T12:59:44;32.83;;;19.97;;
7833;SDS011;3962;42.696;23.354;2022-11-13T13:02:21;29.13;;;18.37;;
7833;SDS011;3962;42.696;23.354;2022-11-13T13:05:13;27.43;;;16.97;;
7833;SDS011;3962;42.696;23.354;2022-11-13T13:07:58;30.33;;;17.80;;
7833;SDS011;3962;42.696;23.354;2022-11-13T13:10:58;28.00;;;16.63;;
7833;SDS011;3962;42.696;23.354;2022-11-13T13:13:37;33.00;;;18.77;;
7833;SDS011;3962;42.696;23.354;2022-11-13T13:16:18;34.80;;;18.83;;
7833;SDS011;3962;42.696;23.354;2022-11-13T13:18:48;28.23;;;17.30;;
7833;SDS011;3962;42.696;23.354;2022-11-13T13:21:17;34.07;;;21.27;;
7833;SDS011;3962;42.696;23.354;2022-11-13T13:23:46;29.83;;;19.57;;
7833;SDS011;3962;42.696;23.354;2022-11-13T13:26:17;31.87;;;19.63;;
7833;SDS011;3962;42.696;23.354;2022-11-13T13:28:50;31.90;;;18.50;;
7833;SDS011;3962;42.696;23.354;2022-11-13T13:34:27;29.07;;;19.40;;
7833;SDS011;3962;42.696;23.354;2022-11-13T13:37:04;29.80;;;18.53;;
7833;SDS011;3962;42.696;23.354;2022-11-13T13:39:48;35.40;;;20.87;;
7833;SDS011;3962;42.696;23.354;2022-11-13T13:42:33;34.07;;;21.17;;
7833;SDS011;3962;42.696;23.354;2022-11-13T13:45:16;34.10;;;21.70;;
7833;SDS011;3962;42.696;23.354;2022-11-13T13:47:54;33.77;;;21.17;;
7833;SDS011;3962;42.696;23.354;2022-11-13T13:50:25;28.77;;;17.33;;
7833;SDS011;3962;42.696;23.354;2022-11-13T13:52:56;42.50;;;23.17;;
7833;SDS011;3962;42.696;23.354;2022-11-13T13:55:26;33.50;;;21.17;;
7833;SDS011;3962;42.696;23.354;2022-11-13T13:58:02;35.83;;;21.03;;
7833;SDS011;3962;42.696;23.354;2022-11-13T14:00:34;30.77;;;19.37;;
7833;SDS011;3962;42.696;23.354;2022-11-13T14:03:03;29.37;;;19.13;;
7833;SDS011;3962;42.696;23.354;2022-11-13T14:05:43;38.43;;;22.87;;
7833;SDS011;3962;42.696;23.354;2022-11-13T14:08:15;40.47;;;23.13;;
7833;SDS011;3962;42.696;23.354;2022-11-13T14:10:43;38.70;;;23.07;;
7833;SDS011;3962;42.696;23.354;2022-11-13T14:13:21;39.57;;;23.03;;
7833;SDS011;3962;42.696;23.354;2022-11-13T14:15:58;36.50;;;22.27;;
7833;SDS011;3962;42.696;23.354;2022-11-13T14:18:28;38.50;;;23.43;;
7833;SDS011;3962;42.696;23.354;2022-11-13T14:20:56;43.97;;;24.80;;
7833;SDS011;3962;42.696;23.354;2022-11-13T14:23:27;42.73;;;23.47;;
7833;SDS011;3962;42.696;23.354;2022-11-13T14:25:56;46.60;;;26.10;;
7833;SDS011;3962;42.696;23.354;2022-11-13T14:28:25;39.60;;;24.20;;
7833;SDS011;3962;42.696;23.354;2022-11-13T14:30:53;46.73;;;26.93;;
7833;SDS011;3962;42.696;23.354;2022-11-13T14:33:23;38.37;;;22.03;;
7833;SDS011;3962;42.696;23.354;2022-11-13T14:35:55;34.80;;;21.63;;
7833;SDS011;3962;42.696;23.354;2022-11-13T14:38:24;40.87;;;23.70;;
7833;SDS011;3962;42.696;23.354;2022-11-13T14:40:53;47.43;;;26.37;;
7833;SDS011;3962;42.696;23.354;2022-11-13T14:43:21;50.43;;;26.80;;
7833;SDS011;3962;42.696;23.354;2022-11-13T14:45:52;49.10;;;26.90;;
7833;SDS011;3962;42.696;23.354;2022-11-13T14:48:21;54.17;;;29.07;;
7833;SDS011;3962;42.696;23.354;2022-11-13T14:50:50;53.73;;;29.43;;
7833;SDS011;3962;42.696;23.354;2022-11-13T14:53:26;59.80;;;31.67;;
7833;SDS011;3962;42.696;23.354;2022-11-13T14:55:55;61.57;;;34.30;;
7833;SDS011;3962;42.696;23.354;2022-11-13T14:58:30;60.37;;;32.13;;
7833;SDS011;3962;42.696;23.354;2022-11-13T15:00:58;67.03;;;34.43;;
7833;SDS011;3962;42.696;23.354;2022-11-13T15:03:37;52.43;;;26.33;;
7833;SDS011;3962;42.696;23.354;2022-11-13T15:06:04;42.07;;;21.50;;